Time;durP1;ratioP1;P1;durP2;ratioP2;P2;SDS_P1;SDS_P2;PMS_P1;PMS_P2;Temp;Humidity;BMP_temperature;BMP_pressure;BME280_temperature;BME280_humidity;BME280_pressure;Samples;Min_cycle;Max_cycle;Signal;HPM_P1;HPM_P2
2021/12/06 00:00:21;;;;;;;12.27;11.13;;;;;;;;;;5051854;28;20467;-78
2021/12/06 00:02:48;;;;;;;12.60;11.50;;;;;;;;;;5051920;28;20441;-77
2021/12/06 00:05:16;;;;;;;12.47;11.00;;;;;;;;;;5051690;28;20457;-76
2021/12/06 00:07:43;;;;;;;12.97;11.77;;;;;;;;;;5052082;28;20520;-76
2021/12/06 00:10:11;;;;;;;13.27;11.97;;;;;;;;;;5051824;28;20449;-78
2021/12/06 00:12:41;;;;;;;11.40;10.30;;;;;;;;;;5051331;28;20913;-79
2021/12/06 00:15:09;;;;;;;12.17;10.97;;;;;;;;;;5052375;28;20503;-76
2021/12/06 00:17:36;;;;;;;12.93;11.63;;;;;;;;;;5051954;28;20529;-76
2021/12/06 00:20:03;;;;;;;10.93;9.88;;;;;;;;;;5052324;28;20442;-76
2021/12/06 00:22:30;;;;;;;12.13;10.93;;;;;;;;;;5051694;28;20218;-76
2021/12/06 00:24:58;;;;;;;11.70;10.60;;;;;;;;;;5051286;28;20230;-78
2021/12/06 00:27:25;;;;;;;12.50;11.30;;;;;;;;;;5052633;28;20766;-80
2021/12/06 00:29:54;;;;;;;12.30;11.10;;;;;;;;;;5052233;28;20456;-77
2021/12/06 00:32:21;;;;;;;12.17;10.87;;;;;;;;;;5051644;28;20444;-76
2021/12/06 00:34:48;;;;;;;13.02;11.85;;;;;;;;;;5051567;28;20461;-77
2021/12/06 00:37:21;;;;;;;12.23;10.87;;;;;;;;;;5055054;28;20203;-77
2021/12/06 00:39:50;;;;;;;12.93;11.53;;;;;;;;;;5055770;28;20453;-76
2021/12/06 00:42:18;;;;;;;11.77;10.63;;;;;;;;;;5055626;28;20483;-77
2021/12/06 00:44:45;;;;;;;12.10;10.90;;;;;;;;;;5055345;28;20468;-78
2021/12/06 00:47:14;;;;;;;12.00;10.80;;;;;;;;;;5055542;28;20445;-76
2021/12/06 00:49:41;;;;;;;14.43;12.93;;;;;;;;;;5055738;28;20452;-78
2021/12/06 00:52:09;;;;;;;13.37;12.17;;;;;;;;;;5055227;28;21045;-76
2021/12/06 00:54:36;;;;;;;12.93;11.70;;;;;;;;;;5054965;28;20464;-77
2021/12/06 00:57:04;;;;;;;13.47;12.27;;;;;;;;;;5055863;28;20449;-76
2021/12/06 00:59:31;;;;;;;12.00;10.90;;;;;;;;;;5056244;28;20441;-76
2021/12/06 01:02:00;;;;;;;12.30;11.10;;;;;;;;;;5054773;28;20529;-76
2021/12/06 01:04:29;;;;;;;12.17;10.97;;;;;;;;;;5054481;28;20475;-77
2021/12/06 01:06:56;;;;;;;12.82;11.18;;;;;;;;;;5055357;28;20785;-77
2021/12/06 01:09:23;;;;;;;12.50;11.23;;;;;;;;;;5055341;28;20265;-77
2021/12/06 01:11:50;;;;;;;11.67;10.70;;;;;;;;;;5055375;28;20500;-76
2021/12/06 01:14:17;;;;;;;12.50;11.32;;;;;;;;;;5054980;28;20465;-76
2021/12/06 01:16:44;;;;;;;14.33;12.93;;;;;;;;;;5055181;28;20199;-77
2021/12/06 01:19:11;;;;;;;11.17;10.27;;;;;;;;;;5055251;28;20450;-77
2021/12/06 01:21:47;;;;;;;12.67;11.37;;;;;;;;;;5055382;28;20488;-78
2021/12/06 01:24:17;;;;;;;12.70;10.90;;;;;;;;;;5054786;28;20472;-76
2021/12/06 01:27:06;;;;;;;11.73;10.60;;;;;;;;;;5055043;28;20455;-77
2021/12/06 01:30:00;;;;;;;12.90;11.57;;;;;;;;;;5055214;28;20456;-78
2021/12/06 01:32:48;;;;;;;13.30;12.00;;;;;;;;;;5054945;28;21078;-78
2021/12/06 01:40:43;;;;;;;14.73;13.35;;;;;;;;;;5064177;28;20485;-77
2021/12/06 01:43:10;;;;;;;13.90;12.70;;;;;;;;;;5056564;28;20201;-76
2021/12/06 01:45:37;;;;;;;14.95;13.57;;;;;;;;;;5055209;28;20469;-77
2021/12/06 01:48:05;;;;;;;16.30;14.77;;;;;;;;;;5053776;28;20206;-76
2021/12/06 01:50:32;;;;;;;16.57;14.90;;;;;;;;;;5054299;28;20452;-77
2021/12/06 01:53:01;;;;;;;16.23;14.73;;;;;;;;;;5051499;28;20446;-76
2021/12/06 01:55:29;;;;;;;15.05;13.57;;;;;;;;;;5052562;28;20468;-76
2021/12/06 01:57:57;;;;;;;16.42;14.90;;;;;;;;;;5055029;28;20225;-77
2021/12/06 02:00:26;;;;;;;15.73;14.33;;;;;;;;;;5054607;28;20199;-76
2021/12/06 02:02:53;;;;;;;16.50;14.95;;;;;;;;;;5053140;28;20995;-77
2021/12/06 02:05:21;;;;;;;16.20;14.70;;;;;;;;;;5054775;28;20230;-78
2021/12/06 02:07:48;;;;;;;15.97;14.60;;;;;;;;;;5054533;28;20452;-77
2021/12/06 02:10:16;;;;;;;17.87;16.17;;;;;;;;;;5054417;28;20508;-78
2021/12/06 02:12:45;;;;;;;16.00;14.53;;;;;;;;;;5053839;28;20466;-75
2021/12/06 02:15:26;;;;;;;16.57;14.97;;;;;;;;;;5053763;28;20468;-77
2021/12/06 02:18:01;;;;;;;16.27;14.83;;;;;;;;;;5053883;28;20431;-76
2021/12/06 02:20:30;;;;;;;15.80;14.40;;;;;;;;;;5054518;28;20928;-76
2021/12/06 02:22:59;;;;;;;14.90;13.67;;;;;;;;;;5053881;28;20582;-78
2021/12/06 02:25:26;;;;;;;17.00;15.23;;;;;;;;;;5053627;28;20825;-77
2021/12/06 02:27:53;;;;;;;17.60;14.90;;;;;;;;;;5053751;28;20446;-78
2021/12/06 02:30:21;;;;;;;14.90;13.60;;;;;;;;;;5053772;28;20444;-76
2021/12/06 02:32:49;;;;;;;15.30;13.90;;;;;;;;;;5053152;28;20507;-76
2021/12/06 02:35:18;;;;;;;15.93;14.40;;;;;;;;;;5053242;28;20464;-77
2021/12/06 02:37:46;;;;;;;15.80;14.40;;;;;;;;;;5053466;28;20855;-78
2021/12/06 02:40:16;;;;;;;14.13;12.83;;;;;;;;;;5046744;28;20788;-78
2021/12/06 02:42:45;;;;;;;14.33;12.57;;;;;;;;;;5053044;28;21006;-80
2021/12/06 02:45:13;;;;;;;15.30;13.90;;;;;;;;;;5053829;28;20484;-76
2021/12/06 02:47:41;;;;;;;16.20;13.27;;;;;;;;;;5053400;28;20206;-78
2021/12/06 02:50:09;;;;;;;17.10;13.57;;;;;;;;;;5053650;28;20448;-78
2021/12/06 02:52:36;;;;;;;16.47;15.00;;;;;;;;;;5053715;28;20441;-77
2021/12/06 02:55:11;;;;;;;15.37;13.77;;;;;;;;;;5053379;28;20482;-76
2021/12/06 02:57:45;;;;;;;14.10;12.77;;;;;;;;;;5053285;28;20447;-77
2021/12/06 03:00:12;;;;;;;13.40;12.20;;;;;;;;;;5053548;28;20441;-77
2021/12/06 03:02:39;;;;;;;14.50;13.03;;;;;;;;;;5052602;28;20495;-76
2021/12/06 03:05:07;;;;;;;12.83;11.63;;;;;;;;;;5053524;28;20461;-76
2021/12/06 03:07:36;;;;;;;13.67;12.27;;;;;;;;;;5052616;28;20440;-77
2021/12/06 03:10:04;;;;;;;15.03;13.57;;;;;;;;;;5052858;28;20445;-76
2021/12/06 03:12:31;;;;;;;13.80;12.60;;;;;;;;;;5054026;28;20987;-79
2021/12/06 03:15:00;;;;;;;15.50;14.10;;;;;;;;;;5052432;28;20965;-78
2021/12/06 03:17:29;;;;;;;14.40;12.90;;;;;;;;;;5052619;28;20932;-77
2021/12/06 03:19:56;;;;;;;14.20;12.80;;;;;;;;;;5052705;28;20945;-77
2021/12/06 03:22:23;;;;;;;14.20;12.70;;;;;;;;;;5052571;28;20899;-77
2021/12/06 03:24:50;;;;;;;15.70;13.17;;;;;;;;;;5051954;28;20471;-77
2021/12/06 03:27:18;;;;;;;16.98;15.38;;;;;;;;;;5053039;28;20457;-77
2021/12/06 03:29:45;;;;;;;15.90;14.40;;;;;;;;;;5052656;28;20203;-77
2021/12/06 03:32:14;;;;;;;17.27;15.57;;;;;;;;;;5052417;28;20501;-78
2021/12/06 03:34:41;;;;;;;19.90;17.60;;;;;;;;;;5052554;28;20463;-77
2021/12/06 03:37:09;;;;;;;18.47;16.73;;;;;;;;;;5053336;28;20444;-75
2021/12/06 03:39:37;;;;;;;20.50;18.60;;;;;;;;;;5052919;28;20433;-78
2021/12/06 03:42:05;;;;;;;21.87;19.30;;;;;;;;;;5052423;28;20595;-77
2021/12/06 03:44:33;;;;;;;22.73;20.47;;;;;;;;;;5052608;28;20469;-78
2021/12/06 03:47:01;;;;;;;24.57;21.03;;;;;;;;;;5052422;28;20460;-78
2021/12/06 03:49:29;;;;;;;23.20;21.00;;;;;;;;;;5053629;28;20864;-77
2021/12/06 03:51:56;;;;;;;22.00;19.80;;;;;;;;;;5052386;28;20938;-77
2021/12/06 03:54:25;;;;;;;24.80;22.27;;;;;;;;;;5051718;28;20473;-77
2021/12/06 03:56:52;;;;;;;23.37;21.13;;;;;;;;;;5051691;28;20940;-77
2021/12/06 03:59:19;;;;;;;22.33;20.27;;;;;;;;;;5051961;28;20814;-77
2021/12/06 04:01:47;;;;;;;22.00;19.93;;;;;;;;;;5051945;28;20500;-77
2021/12/06 04:04:14;;;;;;;23.17;20.87;;;;;;;;;;5051458;28;20465;-76
2021/12/06 04:06:43;;;;;;;23.03;20.77;;;;;;;;;;5051730;28;20454;-76
2021/12/06 04:09:11;;;;;;;24.17;21.90;;;;;;;;;;5051821;28;20453;-79
2021/12/06 04:11:38;;;;;;;22.87;20.57;;;;;;;;;;5051442;28;20451;-76
2021/12/06 04:14:06;;;;;;;23.47;21.10;;;;;;;;;;5051216;28;20468;-76
2021/12/06 04:16:33;;;;;;;24.50;22.20;;;;;;;;;;5051585;28;20527;-76
2021/12/06 04:19:00;;;;;;;24.03;21.60;;;;;;;;;;5051934;28;20455;-77
2021/12/06 04:21:28;;;;;;;23.75;21.35;;;;;;;;;;5052111;28;20468;-77
2021/12/06 04:23:57;;;;;;;25.70;23.00;;;;;;;;;;5051753;28;20231;-77
2021/12/06 04:26:24;;;;;;;23.50;21.20;;;;;;;;;;5051411;28;20456;-78
2021/12/06 04:28:59;;;;;;;23.17;20.97;;;;;;;;;;5051607;28;20459;-76
2021/12/06 04:31:26;;;;;;;24.77;22.25;;;;;;;;;;5052942;28;20484;-77
2021/12/06 04:33:53;;;;;;;23.23;20.90;;;;;;;;;;5051277;28;20675;-76
2021/12/06 04:36:20;;;;;;;25.27;22.57;;;;;;;;;;5051832;28;20437;-77
2021/12/06 04:38:47;;;;;;;25.90;23.10;;;;;;;;;;5053903;28;20442;-76
2021/12/06 04:41:16;;;;;;;28.70;23.20;;;;;;;;;;5055600;28;20444;-79
2021/12/06 04:43:43;;;;;;;28.07;22.97;;;;;;;;;;5053633;28;20488;-77
2021/12/06 04:46:10;;;;;;;26.17;22.33;;;;;;;;;;5053031;28;20457;-77
2021/12/06 04:48:37;;;;;;;32.27;25.20;;;;;;;;;;5051640;28;20213;-76
2021/12/06 04:51:04;;;;;;;27.73;22.23;;;;;;;;;;5051644;28;21007;-76
2021/12/06 04:53:36;;;;;;;29.13;24.03;;;;;;;;;;5051126;28;20446;-77
2021/12/06 04:56:06;;;;;;;31.17;23.10;;;;;;;;;;5052513;28;20454;-79
2021/12/06 04:58:39;;;;;;;26.60;22.53;;;;;;;;;;5051935;28;20187;-77
2021/12/06 05:01:07;;;;;;;34.10;23.93;;;;;;;;;;5051592;28;20513;-77
2021/12/06 05:03:35;;;;;;;29.67;23.30;;;;;;;;;;5051170;28;20536;-77
2021/12/06 05:06:04;;;;;;;29.77;24.33;;;;;;;;;;5052086;28;20439;-76
2021/12/06 05:08:33;;;;;;;27.80;22.65;;;;;;;;;;5052870;28;20203;-77
2021/12/06 05:11:01;;;;;;;30.73;22.77;;;;;;;;;;5059032;28;20210;-76
2021/12/06 05:13:28;;;;;;;30.13;23.57;;;;;;;;;;5058401;28;20820;-78
2021/12/06 05:15:57;;;;;;;28.37;23.93;;;;;;;;;;5058965;28;20447;-77
2021/12/06 05:18:24;;;;;;;26.50;22.00;;;;;;;;;;5053615;28;20448;-76
2021/12/06 05:20:52;;;;;;;31.50;22.73;;;;;;;;;;5051716;28;20854;-77
2021/12/06 05:23:20;;;;;;;26.03;21.73;;;;;;;;;;5052892;28;20479;-77
2021/12/06 05:25:47;;;;;;;24.25;21.35;;;;;;;;;;5055797;28;20469;-77
2021/12/06 05:28:15;;;;;;;28.77;22.13;;;;;;;;;;5055172;28;20209;-78
2021/12/06 05:30:44;;;;;;;26.77;21.08;;;;;;;;;;5055276;28;20456;-77
2021/12/06 05:33:18;;;;;;;26.53;21.70;;;;;;;;;;5054700;28;20580;-77
2021/12/06 05:35:45;;;;;;;30.90;23.03;;;;;;;;;;5055617;28;20470;-79
2021/12/06 05:38:12;;;;;;;28.60;23.00;;;;;;;;;;5056544;28;20450;-77
2021/12/06 05:40:40;;;;;;;29.50;21.97;;;;;;;;;;5055771;28;20450;-77
2021/12/06 05:43:08;;;;;;;31.00;23.03;;;;;;;;;;5054297;28;21044;-77
2021/12/06 05:45:37;;;;;;;27.77;21.50;;;;;;;;;;5058551;28;20543;-78
2021/12/06 05:48:05;;;;;;;30.27;22.47;;;;;;;;;;5060037;28;20490;-79
2021/12/06 05:50:33;;;;;;;28.00;22.63;;;;;;;;;;5059598;28;20447;-76
2021/12/06 05:53:00;;;;;;;28.93;22.57;;;;;;;;;;5058524;28;20511;-77
2021/12/06 05:55:29;;;;;;;27.60;23.17;;;;;;;;;;5058787;28;20468;-77
2021/12/06 05:57:56;;;;;;;26.77;20.10;;;;;;;;;;5057677;28;20617;-76
2021/12/06 06:00:25;;;;;;;27.23;21.73;;;;;;;;;;5054747;28;20447;-77
2021/12/06 06:02:52;;;;;;;24.63;20.33;;;;;;;;;;5054110;28;20519;-76
2021/12/06 06:05:20;;;;;;;30.17;23.53;;;;;;;;;;5054880;28;20472;-79
2021/12/06 06:07:49;;;;;;;24.60;21.13;;;;;;;;;;5054615;28;20507;-77
2021/12/06 06:10:16;;;;;;;25.53;21.87;;;;;;;;;;5055352;28;20501;-78
2021/12/06 06:12:43;;;;;;;24.50;21.03;;;;;;;;;;5055090;28;20453;-77
2021/12/06 06:15:10;;;;;;;28.30;20.10;;;;;;;;;;5055029;28;20862;-76
2021/12/06 06:17:42;;;;;;;23.20;20.00;;;;;;;;;;5055211;28;20457;-77
2021/12/06 06:20:10;;;;;;;24.40;20.13;;;;;;;;;;5055639;28;20513;-77
2021/12/06 06:22:37;;;;;;;24.17;20.50;;;;;;;;;;5056150;28;20480;-78
2021/12/06 06:25:06;;;;;;;26.67;20.37;;;;;;;;;;5056506;28;20517;-78
2021/12/06 06:27:33;;;;;;;26.07;21.07;;;;;;;;;;5058380;28;20503;-76
2021/12/06 06:30:00;;;;;;;24.33;19.77;;;;;;;;;;5058510;28;20433;-77
2021/12/06 06:32:27;;;;;;;25.40;20.67;;;;;;;;;;5060539;28;20450;-77
2021/12/06 06:34:55;;;;;;;26.37;19.50;;;;;;;;;;5059167;28;20463;-79
2021/12/06 06:37:22;;;;;;;25.43;21.10;;;;;;;;;;5059480;28;20441;-78
2021/12/06 06:39:49;;;;;;;28.60;21.83;;;;;;;;;;5061458;28;20440;-77
2021/12/06 06:42:22;;;;;;;28.57;21.27;;;;;;;;;;5065791;28;20790;-78
2021/12/06 06:44:50;;;;;;;31.77;23.73;;;;;;;;;;5061391;28;20474;-77
2021/12/06 06:47:17;;;;;;;30.33;24.38;;;;;;;;;;5055167;28;20933;-77
2021/12/06 06:49:44;;;;;;;31.83;24.10;;;;;;;;;;5055671;28;20204;-79
2021/12/06 06:52:11;;;;;;;28.10;22.00;;;;;;;;;;5054373;28;20501;-77
2021/12/06 06:54:38;;;;;;;28.43;22.80;;;;;;;;;;5054819;28;20447;-77
2021/12/06 06:57:05;;;;;;;29.73;22.00;;;;;;;;;;5054078;28;20473;-80
2021/12/06 06:59:34;;;;;;;27.57;21.43;;;;;;;;;;5053800;28;20442;-78
2021/12/06 07:02:01;;;;;;;27.30;21.27;;;;;;;;;;5053788;28;20444;-79
2021/12/06 07:04:28;;;;;;;28.53;22.13;;;;;;;;;;5053944;28;20578;-77
2021/12/06 07:06:55;;;;;;;27.80;20.97;;;;;;;;;;5055310;28;20477;-77
2021/12/06 07:09:22;;;;;;;27.40;22.13;;;;;;;;;;5054278;28;20454;-77
2021/12/06 07:11:50;;;;;;;27.25;21.70;;;;;;;;;;5055074;28;20457;-78
2021/12/06 07:14:18;;;;;;;29.63;22.33;;;;;;;;;;5053152;28;20217;-77
2021/12/06 07:16:47;;;;;;;30.63;21.50;;;;;;;;;;5053122;28;20496;-79
2021/12/06 07:19:14;;;;;;;31.52;21.33;;;;;;;;;;5056298;28;20441;-79
2021/12/06 07:21:41;;;;;;;29.92;22.17;;;;;;;;;;5055182;28;20199;-78
2021/12/06 07:24:08;;;;;;;28.03;21.27;;;;;;;;;;5054755;28;20345;-77
2021/12/06 07:26:36;;;;;;;29.65;21.52;;;;;;;;;;5056622;28;20457;-79
2021/12/06 07:29:03;;;;;;;27.47;21.00;;;;;;;;;;5055038;28;20221;-79
2021/12/06 07:31:30;;;;;;;28.27;19.90;;;;;;;;;;5053306;28;20491;-78
2021/12/06 07:34:10;;;;;;;31.63;22.63;;;;;;;;;;5057123;28;20493;-78
2021/12/06 07:36:37;;;;;;;35.77;23.73;;;;;;;;;;5056389;28;20431;-76
2021/12/06 07:39:05;;;;;;;29.23;22.70;;;;;;;;;;5053989;28;20844;-79
2021/12/06 07:41:33;;;;;;;31.40;22.60;;;;;;;;;;5054397;28;20858;-77
2021/12/06 07:44:00;;;;;;;26.10;19.10;;;;;;;;;;5052768;28;20478;-78
2021/12/06 07:46:27;;;;;;;29.70;20.10;;;;;;;;;;5042998;28;20460;-77
2021/12/06 07:48:54;;;;;;;27.50;20.47;;;;;;;;;;5053450;28;20838;-76
2021/12/06 07:51:24;;;;;;;26.13;20.43;;;;;;;;;;5054815;28;20476;-78
2021/12/06 07:53:51;;;;;;;27.10;20.30;;;;;;;;;;5052865;28;20493;-79
2021/12/06 07:56:18;;;;;;;28.77;21.03;;;;;;;;;;5053622;28;20521;-76
2021/12/06 07:58:46;;;;;;;30.00;20.27;;;;;;;;;;5053188;28;20447;-78
2021/12/06 08:01:13;;;;;;;28.53;19.67;;;;;;;;;;5053656;28;20519;-79
2021/12/06 08:03:41;;;;;;;25.93;19.40;;;;;;;;;;5052261;28;20475;-77
2021/12/06 08:06:09;;;;;;;32.37;21.23;;;;;;;;;;5053317;28;20442;-78
2021/12/06 08:08:38;;;;;;;28.40;20.80;;;;;;;;;;5055125;28;20444;-77
2021/12/06 08:11:08;;;;;;;28.38;19.75;;;;;;;;;;5054258;28;20921;-78
2021/12/06 08:13:36;;;;;;;28.27;20.77;;;;;;;;;;5054529;28;20273;-78
2021/12/06 08:16:04;;;;;;;29.33;19.90;;;;;;;;;;5053871;28;20574;-78
2021/12/06 08:18:31;;;;;;;24.83;19.17;;;;;;;;;;5053850;28;20494;-79
2021/12/06 08:21:00;;;;;;;26.93;19.00;;;;;;;;;;5053712;28;20451;-77
2021/12/06 08:23:27;;;;;;;59.80;38.20;;;;;;;;;;5053725;28;20487;-77
2021/12/06 08:25:56;;;;;;;33.60;21.87;;;;;;;;;;5054124;28;20471;-80
2021/12/06 08:28:24;;;;;;;25.80;17.97;;;;;;;;;;5054099;28;20448;-76
2021/12/06 08:30:52;;;;;;;30.30;20.10;;;;;;;;;;5055209;28;20439;-77
2021/12/06 08:33:19;;;;;;;25.40;18.85;;;;;;;;;;5054621;28;20785;-81
2021/12/06 08:35:47;;;;;;;25.40;17.13;;;;;;;;;;5055489;28;20279;-77
2021/12/06 08:38:15;;;;;;;25.20;18.00;;;;;;;;;;5055435;28;20498;-77
2021/12/06 08:40:42;;;;;;;22.50;17.87;;;;;;;;;;5054403;28;20199;-77
2021/12/06 08:43:16;;;;;;;24.30;18.10;;;;;;;;;;5056765;28;20488;-77
2021/12/06 08:45:44;;;;;;;23.87;18.33;;;;;;;;;;5065359;28;20499;-77
2021/12/06 08:48:11;;;;;;;22.40;16.30;;;;;;;;;;5065837;28;20456;-77
2021/12/06 08:50:38;;;;;;;22.30;16.80;;;;;;;;;;5068003;28;20446;-77
2021/12/06 08:53:05;;;;;;;25.80;17.90;;;;;;;;;;5067720;28;20453;-77
2021/12/06 08:55:32;;;;;;;26.80;18.03;;;;;;;;;;5070531;28;20487;-77
2021/12/06 08:57:59;;;;;;;25.97;18.20;;;;;;;;;;5072673;28;20437;-77
2021/12/06 09:00:29;;;;;;;28.83;18.20;;;;;;;;;;5074867;28;20450;-78
2021/12/06 09:02:56;;;;;;;24.70;17.33;;;;;;;;;;5066780;28;20438;-80
2021/12/06 09:05:25;;;;;;;23.37;17.00;;;;;;;;;;5057449;28;20516;-79
2021/12/06 09:07:52;;;;;;;27.23;17.50;;;;;;;;;;5056560;28;20552;-77
2021/12/06 09:10:19;;;;;;;25.05;18.50;;;;;;;;;;5057230;28;20522;-77
2021/12/06 09:12:46;;;;;;;21.07;17.10;;;;;;;;;;5057565;28;20718;-79
2021/12/06 09:15:15;;;;;;;23.17;16.43;;;;;;;;;;5056884;28;20463;-80
2021/12/06 09:17:43;;;;;;;24.57;16.63;;;;;;;;;;5057180;28;20460;-77
2021/12/06 09:20:12;;;;;;;21.23;17.53;;;;;;;;;;5055819;28;20945;-79
2021/12/06 09:22:40;;;;;;;23.50;16.97;;;;;;;;;;5056344;28;20461;-78
2021/12/06 09:25:08;;;;;;;22.30;16.20;;;;;;;;;;5056254;28;20492;-80
2021/12/06 09:27:36;;;;;;;23.90;17.87;;;;;;;;;;5055909;28;20451;-78
2021/12/06 09:30:04;;;;;;;22.85;17.27;;;;;;;;;;5055379;28;21130;-77
2021/12/06 09:32:31;;;;;;;19.60;17.30;;;;;;;;;;5055741;28;20441;-77
2021/12/06 09:34:59;;;;;;;22.90;17.17;;;;;;;;;;5057035;28;20458;-77
2021/12/06 09:37:26;;;;;;;24.93;18.40;;;;;;;;;;5058806;28;20195;-78
2021/12/06 09:39:56;;;;;;;22.77;16.70;;;;;;;;;;5059122;28;20460;-78
2021/12/06 09:42:23;;;;;;;18.43;15.03;;;;;;;;;;5058398;28;20207;-77
2021/12/06 09:44:50;;;;;;;25.37;17.77;;;;;;;;;;5058097;28;20485;-77
2021/12/06 09:47:17;;;;;;;19.58;15.82;;;;;;;;;;5061742;28;20453;-77
2021/12/06 09:49:44;;;;;;;20.48;16.08;;;;;;;;;;5062172;28;20298;-78
2021/12/06 09:52:15;;;;;;;20.40;15.83;;;;;;;;;;5060116;28;20277;-78
2021/12/06 09:54:42;;;;;;;27.80;16.17;;;;;;;;;;5057211;28;20463;-78
2021/12/06 09:57:10;;;;;;;19.27;15.60;;;;;;;;;;5057780;28;20442;-78
2021/12/06 09:59:38;;;;;;;22.50;15.77;;;;;;;;;;5059070;28;20438;-78
2021/12/06 10:02:07;;;;;;;18.67;15.60;;;;;;;;;;5058396;28;20740;-78
2021/12/06 10:04:38;;;;;;;24.43;17.00;;;;;;;;;;5055858;28;20548;-79
2021/12/06 10:07:07;;;;;;;22.80;16.30;;;;;;;;;;5055874;28;20880;-79
2021/12/06 10:09:35;;;;;;;23.17;16.40;;;;;;;;;;5055089;28;20887;-79
2021/12/06 10:12:02;;;;;;;22.30;17.10;;;;;;;;;;5056613;28;20543;-79
2021/12/06 10:14:30;;;;;;;24.03;16.33;;;;;;;;;;5057078;28;20476;-79
2021/12/06 10:16:57;;;;;;;23.97;16.60;;;;;;;;;;5057126;28;20449;-78
2021/12/06 10:19:25;;;;;;;20.33;14.03;;;;;;;;;;5056113;28;20940;-77
2021/12/06 10:21:53;;;;;;;19.30;13.70;;;;;;;;;;5055344;28;20438;-77
2021/12/06 10:24:26;;;;;;;19.83;14.40;;;;;;;;;;5055342;28;20509;-79
2021/12/06 10:27:04;;;;;;;22.63;15.97;;;;;;;;;;5056531;28;20433;-77
2021/12/06 10:29:38;;;;;;;22.20;16.30;;;;;;;;;;5057309;28;20467;-77
2021/12/06 10:32:11;;;;;;;19.03;14.43;;;;;;;;;;5055802;28;20876;-77
2021/12/06 10:34:38;;;;;;;20.80;14.73;;;;;;;;;;5055276;28;20449;-78
2021/12/06 10:37:05;;;;;;;15.70;13.53;;;;;;;;;;5057455;28;20450;-78
2021/12/06 10:39:36;;;;;;;15.70;13.33;;;;;;;;;;5055987;28;20489;-77
2021/12/06 10:42:05;;;;;;;13.03;10.80;;;;;;;;;;5055868;28;20449;-78
2021/12/06 10:44:32;;;;;;;16.03;11.57;;;;;;;;;;5055428;28;20566;-78
2021/12/06 10:46:59;;;;;;;14.23;11.57;;;;;;;;;;5055662;28;20478;-80
2021/12/06 10:49:27;;;;;;;15.52;12.20;;;;;;;;;;5057079;28;20820;-78
2021/12/06 10:51:54;;;;;;;16.80;11.90;;;;;;;;;;5056037;28;20203;-78
2021/12/06 10:54:34;;;;;;;14.52;11.90;;;;;;;;;;5056948;28;20468;-78
2021/12/06 10:57:03;;;;;;;14.23;11.60;;;;;;;;;;5055356;28;20203;-77
2021/12/06 10:59:33;;;;;;;14.27;11.50;;;;;;;;;;5055541;28;20532;-77
2021/12/06 11:02:07;;;;;;;14.70;11.10;;;;;;;;;;5055529;28;20438;-78
2021/12/06 11:04:34;;;;;;;15.80;10.87;;;;;;;;;;5056463;28;20484;-77
2021/12/06 11:07:05;;;;;;;13.52;8.73;;;;;;;;;;5074214;28;20456;-76
2021/12/06 11:09:34;;;;;;;12.83;8.90;;;;;;;;;;5076841;28;20195;-76
2021/12/06 11:12:03;;;;;;;10.63;9.50;;;;;;;;;;5076164;28;20420;-76
2021/12/06 11:14:33;;;;;;;11.57;9.20;;;;;;;;;;5076400;28;20446;-76
2021/12/06 11:17:01;;;;;;;11.32;8.55;;;;;;;;;;5076469;28;20421;-76
2021/12/06 11:19:29;;;;;;;8.73;7.83;;;;;;;;;;5076030;28;20429;-77
2021/12/06 11:21:58;;;;;;;7.80;6.80;;;;;;;;;;5072880;28;20434;-77
2021/12/06 11:24:26;;;;;;;8.07;6.50;;;;;;;;;;5070181;28;20484;-76
2021/12/06 11:26:56;;;;;;;7.57;6.80;;;;;;;;;;5069318;28;20497;-78
2021/12/06 11:29:24;;;;;;;8.77;7.40;;;;;;;;;;5068528;28;20195;-77
2021/12/06 11:31:57;;;;;;;8.90;7.00;;;;;;;;;;5061711;28;20449;-78
2021/12/06 11:34:27;;;;;;;7.57;6.27;;;;;;;;;;5059754;28;20469;-78
2021/12/06 11:36:55;;;;;;;7.57;6.38;;;;;;;;;;5061277;28;20472;-80
2021/12/06 11:39:23;;;;;;;8.60;7.77;;;;;;;;;;5061183;28;20225;-78
2021/12/06 11:41:51;;;;;;;7.47;6.63;;;;;;;;;;5063405;28;20438;-78
2021/12/06 11:44:21;;;;;;;8.20;7.07;;;;;;;;;;5056299;28;20485;-78
2021/12/06 11:46:48;;;;;;;7.80;6.30;;;;;;;;;;5055033;28;20217;-78
2021/12/06 11:49:18;;;;;;;8.47;6.20;;;;;;;;;;5057717;28;20458;-80
2021/12/06 11:51:46;;;;;;;16.33;14.07;;;;;;;;;;5056990;28;21128;-78
2021/12/06 11:54:13;;;;;;;10.83;9.73;;;;;;;;;;5053644;28;20462;-79
2021/12/06 11:56:45;;;;;;;9.73;7.00;;;;;;;;;;5052762;28;20449;-78
2021/12/06 11:59:13;;;;;;;8.10;7.27;;;;;;;;;;5052827;28;20441;-78
2021/12/06 12:01:41;;;;;;;6.73;6.07;;;;;;;;;;5054505;28;20815;-78
2021/12/06 12:04:10;;;;;;;6.43;5.83;;;;;;;;;;5053546;28;20538;-79
2021/12/06 12:06:39;;;;;;;10.60;7.00;;;;;;;;;;5053425;28;20453;-78
2021/12/06 12:09:09;;;;;;;6.97;6.27;;;;;;;;;;5053319;28;20446;-78
2021/12/06 12:11:57;;;;;;;7.30;6.40;;;;;;;;;;5052968;28;20453;-77
2021/12/06 12:14:26;;;;;;;9.43;6.30;;;;;;;;;;5052569;28;20492;-77
2021/12/06 12:16:53;;;;;;;7.00;6.30;;;;;;;;;;5053638;28;20530;-79
2021/12/06 12:19:20;;;;;;;6.82;6.13;;;;;;;;;;5055036;28;20508;-79
2021/12/06 12:21:49;;;;;;;6.87;5.53;;;;;;;;;;5054147;28;20675;-79
2021/12/06 12:24:16;;;;;;;6.07;5.57;;;;;;;;;;5054501;28;20539;-78
2021/12/06 12:26:53;;;;;;;6.87;6.17;;;;;;;;;;5054520;28;20481;-78
2021/12/06 12:29:25;;;;;;;7.93;7.13;;;;;;;;;;5053345;28;20458;-79
2021/12/06 12:31:53;;;;;;;8.33;7.03;;;;;;;;;;5055162;28;20790;-79
2021/12/06 12:34:20;;;;;;;6.10;5.53;;;;;;;;;;5057433;28;20469;-79
2021/12/06 12:36:48;;;;;;;5.30;4.60;;;;;;;;;;5058444;28;20457;-78
2021/12/06 12:39:16;;;;;;;5.30;4.40;;;;;;;;;;5059251;28;20440;-79
2021/12/06 12:41:48;;;;;;;2.97;2.63;;;;;;;;;;5058290;28;20456;-78
2021/12/06 12:44:16;;;;;;;3.70;3.40;;;;;;;;;;5057191;28;20468;-78
2021/12/06 12:46:46;;;;;;;6.30;4.70;;;;;;;;;;5058129;28;20457;-80
2021/12/06 12:49:14;;;;;;;5.87;5.27;;;;;;;;;;5057845;28;20532;-79
2021/12/06 12:51:47;;;;;;;4.90;4.50;;;;;;;;;;5057869;28;20441;-79
2021/12/06 12:54:18;;;;;;;9.25;7.90;;;;;;;;;;5059439;28;20465;-79
2021/12/06 12:56:46;;;;;;;13.60;9.60;;;;;;;;;;5057579;28;20203;-79
2021/12/06 12:59:31;;;;;;;14.37;10.80;;;;;;;;;;5057335;28;20843;-79
2021/12/06 13:02:19;;;;;;;13.90;11.20;;;;;;;;;;5056647;28;20438;-78
2021/12/06 13:05:07;;;;;;;15.40;11.30;;;;;;;;;;5059591;28;20571;-78
2021/12/06 13:07:36;;;;;;;11.20;10.00;;;;;;;;;;5057562;28;20476;-77
2021/12/06 13:10:18;;;;;;;12.93;11.00;;;;;;;;;;5057592;28;20495;-79
2021/12/06 13:12:57;;;;;;;11.40;9.90;;;;;;;;;;5057577;28;20437;-77
2021/12/06 13:15:34;;;;;;;13.43;10.93;;;;;;;;;;5057357;28;20464;-79
2021/12/06 13:18:03;;;;;;;14.30;10.47;;;;;;;;;;5057036;28;20444;-79
2021/12/06 13:20:36;;;;;;;13.37;9.97;;;;;;;;;;5055823;28;20513;-78
2021/12/06 13:23:10;;;;;;;11.50;9.37;;;;;;;;;;5056801;28;20477;-78
2021/12/06 13:25:37;;;;;;;10.40;9.37;;;;;;;;;;5058016;28;20481;-78
2021/12/06 13:28:07;;;;;;;11.27;10.00;;;;;;;;;;5059574;28;20445;-80
2021/12/06 13:30:41;;;;;;;12.83;10.80;;;;;;;;;;5058534;28;20445;-77
2021/12/06 13:33:09;;;;;;;14.55;10.57;;;;;;;;;;5058803;28;20455;-77
2021/12/06 13:35:39;;;;;;;11.63;10.30;;;;;;;;;;5067513;28;20215;-78
2021/12/06 13:38:12;;;;;;;11.67;10.23;;;;;;;;;;5068551;28;20227;-76
2021/12/06 13:40:41;;;;;;;9.73;8.23;;;;;;;;;;5073649;28;20434;-76
2021/12/06 13:43:13;;;;;;;12.13;10.80;;;;;;;;;;5071500;28;20468;-77
2021/12/06 13:45:41;;;;;;;14.27;10.30;;;;;;;;;;5073609;28;20481;-77
2021/12/06 13:48:10;;;;;;;10.88;8.73;;;;;;;;;;5076315;28;20229;-78
2021/12/06 13:50:37;;;;;;;13.97;10.23;;;;;;;;;;5076483;28;20187;-77
2021/12/06 13:53:05;;;;;;;12.53;10.30;;;;;;;;;;5075001;28;20446;-77
2021/12/06 13:55:37;;;;;;;11.80;9.17;;;;;;;;;;5073848;28;20446;-77
2021/12/06 13:58:05;;;;;;;11.67;9.10;;;;;;;;;;5069782;28;20974;-77
2021/12/06 14:00:42;;;;;;;15.70;11.33;;;;;;;;;;5056893;28;20470;-78
2021/12/06 14:03:12;;;;;;;16.73;13.50;;;;;;;;;;5055443;28;20532;-79
2021/12/06 14:05:41;;;;;;;14.60;12.60;;;;;;;;;;5055674;28;20466;-78
2021/12/06 14:08:08;;;;;;;15.53;12.10;;;;;;;;;;5059819;28;20449;-79
2021/12/06 14:10:35;;;;;;;17.70;14.10;;;;;;;;;;5055739;28;20468;-78
2021/12/06 14:13:07;;;;;;;16.83;13.53;;;;;;;;;;5056346;28;20445;-78
2021/12/06 14:15:46;;;;;;;17.60;14.07;;;;;;;;;;5056033;28;20462;-78
2021/12/06 14:18:17;;;;;;;15.27;13.10;;;;;;;;;;5057070;28;20537;-78
2021/12/06 14:20:46;;;;;;;15.67;13.47;;;;;;;;;;5057025;28;20457;-79
2021/12/06 14:23:15;;;;;;;14.77;13.17;;;;;;;;;;5054650;28;20857;-78
2021/12/06 14:25:48;;;;;;;17.15;13.60;;;;;;;;;;5055917;28;20484;-79
2021/12/06 14:28:15;;;;;;;16.03;12.93;;;;;;;;;;5055546;28;20712;-77
2021/12/06 14:30:44;;;;;;;17.60;13.47;;;;;;;;;;5056273;28;20445;-78
2021/12/06 14:33:11;;;;;;;16.20;13.77;;;;;;;;;;5054269;28;20438;-77
2021/12/06 14:35:38;;;;;;;19.73;15.13;;;;;;;;;;5054577;28;20461;-78